sensor_id;sensor_type;location;lat;lon;timestamp;pressure;altitude;pressure_sealevel;temperature;humidity
63287;BME280;49410;55.708;37.522;2022-08-19T00:01:15;100016.97;;;22.59;nan
63287;BME280;49410;55.708;37.522;2022-08-19T00:03:41;100027.50;;;22.69;nan
63287;BME280;49410;55.708;37.522;2022-08-19T00:06:06;100018.88;;;22.59;nan
63287;BME280;49410;55.708;37.522;2022-08-19T00:08:32;100025.94;;;22.61;nan
63287;BME280;49410;55.708;37.522;2022-08-19T00:10:57;100010.91;;;22.51;nan
63287;BME280;49410;55.708;37.522;2022-08-19T00:13:23;100026.53;;;22.52;nan
63287;BME280;49410;55.708;37.522;2022-08-19T00:15:48;100017.34;;;22.51;nan
63287;BME280;49410;55.708;37.522;2022-08-19T00:18:14;100043.25;;;22.52;nan
63287;BME280;49410;55.708;37.522;2022-08-19T00:20:39;100022.41;;;22.42;nan
63287;BME280;49410;55.708;37.522;2022-08-19T00:23:06;100024.78;;;22.39;nan
63287;BME280;49410;55.708;37.522;2022-08-19T00:25:32;100024.78;;;22.39;nan
63287;BME280;49410;55.708;37.522;2022-08-19T00:27:58;100025.03;;;22.37;nan
63287;BME280;49410;55.708;37.522;2022-08-19T00:30:25;100024.78;;;22.39;nan
63287;BME280;49410;55.708;37.522;2022-08-19T00:32:53;100023.19;;;22.31;nan
63287;BME280;49410;55.708;37.522;2022-08-19T00:35:21;100021.38;;;22.25;nan
63287;BME280;49410;55.708;37.522;2022-08-19T00:37:48;100033.00;;;22.22;nan
63287;BME280;49410;55.708;37.522;2022-08-19T00:40:14;100032.75;;;22.23;nan
63287;BME280;49410;55.708;37.522;2022-08-19T00:42:40;100031.78;;;22.17;nan
63287;BME280;49410;55.708;37.522;2022-08-19T00:45:15;100025.34;;;22.17;nan
63287;BME280;49410;55.708;37.522;2022-08-19T00:47:43;100033.34;;;22.13;nan
63287;BME280;49410;55.708;37.522;2022-08-19T00:50:10;100043.03;;;22.11;nan
63287;BME280;49410;55.708;37.522;2022-08-19T00:52:41;100041.94;;;22.12;nan
63287;BME280;49410;55.708;37.522;2022-08-19T00:55:13;100047.28;;;22.13;nan
63287;BME280;49410;55.708;37.522;2022-08-19T00:57:42;100042.50;;;22.02;nan
63287;BME280;49410;55.708;37.522;2022-08-19T01:00:12;100046.00;;;21.97;nan
63287;BME280;49410;55.708;37.522;2022-08-19T01:02:40;100057.66;;;22.06;nan
63287;BME280;49410;55.708;37.522;2022-08-19T01:05:09;100044.31;;;21.96;nan
63287;BME280;49410;55.708;37.522;2022-08-19T01:07:37;100065.97;;;21.94;nan
63287;BME280;49410;55.708;37.522;2022-08-19T01:10:06;100057.69;;;21.87;nan
63287;BME280;49410;55.708;37.522;2022-08-19T01:12:32;100053.72;;;21.83;nan
63287;BME280;49410;55.708;37.522;2022-08-19T01:14:59;100066.00;;;21.76;nan
63287;BME280;49410;55.708;37.522;2022-08-19T01:17:25;100068.16;;;21.74;nan
63287;BME280;49410;55.708;37.522;2022-08-19T01:19:50;100074.72;;;21.79;nan
63287;BME280;49410;55.708;37.522;2022-08-19T01:22:36;100065.59;;;21.60;nan
63287;BME280;49410;55.708;37.522;2022-08-19T01:25:05;100055.13;;;21.55;nan
63287;BME280;49410;55.708;37.522;2022-08-19T01:27:43;100036.19;;;21.46;nan
63287;BME280;49410;55.708;37.522;2022-08-19T01:30:12;100073.94;;;21.60;nan
63287;BME280;49410;55.708;37.522;2022-08-19T01:32:38;100049.41;;;21.50;nan
63287;BME280;49410;55.708;37.522;2022-08-19T01:35:04;100066.09;;;21.50;nan
63287;BME280;49410;55.708;37.522;2022-08-19T01:37:30;100070.44;;;21.46;nan
63287;BME280;49410;55.708;37.522;2022-08-19T01:39:56;100069.81;;;21.44;nan
63287;BME280;49410;55.708;37.522;2022-08-19T01:42:22;100052.72;;;21.22;nan
63287;BME280;49410;55.708;37.522;2022-08-19T01:44:47;100060.63;;;21.25;nan
63287;BME280;49410;55.708;37.522;2022-08-19T01:47:14;100056.84;;;21.19;nan
63287;BME280;49410;55.708;37.522;2022-08-19T01:49:39;100059.63;;;21.19;nan
63287;BME280;49410;55.708;37.522;2022-08-19T01:52:05;100056.75;;;21.07;nan
63287;BME280;49410;55.708;37.522;2022-08-19T01:54:31;100056.53;;;21.09;nan
63287;BME280;49410;55.708;37.522;2022-08-19T01:57:06;100061.69;;;21.05;nan
63287;BME280;49410;55.708;37.522;2022-08-19T01:59:33;100055.31;;;21.05;nan
63287;BME280;49410;55.708;37.522;2022-08-19T02:02:02;100044.25;;;20.98;nan
63287;BME280;49410;55.708;37.522;2022-08-19T02:04:29;100048.50;;;21.01;nan
63287;BME280;49410;55.708;37.522;2022-08-19T02:06:54;100044.31;;;20.91;nan
63287;BME280;49410;55.708;37.522;2022-08-19T02:09:20;100045.34;;;20.97;nan
63287;BME280;49410;55.708;37.522;2022-08-19T02:11:45;100032.56;;;20.89;nan
63287;BME280;49410;55.708;37.522;2022-08-19T02:14:11;100033.91;;;20.87;nan
63287;BME280;49410;55.708;37.522;2022-08-19T02:16:37;100044.06;;;20.93;nan
63287;BME280;49410;55.708;37.522;2022-08-19T02:19:04;100033.28;;;20.85;nan
63287;BME280;49410;55.708;37.522;2022-08-19T02:21:29;100049.25;;;20.89;nan
63287;BME280;49410;55.708;37.522;2022-08-19T02:23:55;100075.41;;;20.82;nan
63287;BME280;49410;55.708;37.522;2022-08-19T02:26:21;100084.22;;;20.78;nan
63287;BME280;49410;55.708;37.522;2022-08-19T02:28:47;100096.50;;;20.89;nan
63287;BME280;49410;55.708;37.522;2022-08-19T02:31:16;100091.19;;;20.88;nan
63287;BME280;49410;55.708;37.522;2022-08-19T02:33:43;100098.44;;;20.89;nan
63287;BME280;49410;55.708;37.522;2022-08-19T02:36:10;100100.16;;;20.90;nan
63287;BME280;49410;55.708;37.522;2022-08-19T02:38:38;100098.50;;;20.82;nan
63287;BME280;49410;55.708;37.522;2022-08-19T02:41:17;100096.34;;;20.84;nan
63287;BME280;49410;55.708;37.522;2022-08-19T02:43:43;100082.72;;;20.76;nan
63287;BME280;49410;55.708;37.522;2022-08-19T02:46:22;100082.13;;;20.74;nan
63287;BME280;49410;55.708;37.522;2022-08-19T02:48:49;100094.84;;;20.82;nan
63287;BME280;49410;55.708;37.522;2022-08-19T02:51:20;100084.38;;;20.84;nan
63287;BME280;49410;55.708;37.522;2022-08-19T02:53:46;100091.56;;;20.91;nan
63287;BME280;49410;55.708;37.522;2022-08-19T02:56:11;100096.50;;;20.89;nan
63287;BME280;49410;55.708;37.522;2022-08-19T02:58:37;100086.25;;;20.90;nan
63287;BME280;49410;55.708;37.522;2022-08-19T03:01:03;100094.09;;;20.93;nan
63287;BME280;49410;55.708;37.522;2022-08-19T03:03:29;100087.72;;;20.92;nan
63287;BME280;49410;55.708;37.522;2022-08-19T03:06:10;100093.56;;;20.84;nan
63287;BME280;49410;55.708;37.522;2022-08-19T03:08:37;100088.53;;;20.93;nan
63287;BME280;49410;55.708;37.522;2022-08-19T03:11:03;100085.13;;;20.91;nan
63287;BME280;49410;55.708;37.522;2022-08-19T03:13:28;100090.69;;;20.91;nan
63287;BME280;49410;55.708;37.522;2022-08-19T03:15:54;100089.53;;;20.80;nan
63287;BME280;49410;55.708;37.522;2022-08-19T03:18:20;100088.59;;;20.86;nan
63287;BME280;49410;55.708;37.522;2022-08-19T03:20:48;100102.50;;;20.86;nan
63287;BME280;49410;55.708;37.522;2022-08-19T03:23:14;100108.31;;;20.85;nan
63287;BME280;49410;55.708;37.522;2022-08-19T03:25:42;100105.69;;;20.90;nan
63287;BME280;49410;55.708;37.522;2022-08-19T03:28:10;100104.16;;;20.94;nan
63287;BME280;49410;55.708;37.522;2022-08-19T03:30:35;100107.78;;;20.94;nan
63287;BME280;49410;55.708;37.522;2022-08-19T03:33:01;100098.44;;;20.89;nan
63287;BME280;49410;55.708;37.522;2022-08-19T03:35:27;100108.56;;;21.02;nan
63287;BME280;49410;55.708;37.522;2022-08-19T03:37:53;100099.13;;;20.84;nan
63287;BME280;49410;55.708;37.522;2022-08-19T03:40:18;100100.81;;;20.85;nan
63287;BME280;49410;55.708;37.522;2022-08-19T03:42:45;100102.00;;;20.96;nan
63287;BME280;49410;55.708;37.522;2022-08-19T03:45:11;100108.63;;;20.95;nan
63287;BME280;49410;55.708;37.522;2022-08-19T03:47:37;100094.50;;;20.97;nan
63287;BME280;49410;55.708;37.522;2022-08-19T03:50:05;100098.13;;;20.97;nan
63287;BME280;49410;55.708;37.522;2022-08-19T03:52:31;100089.56;;;20.99;nan
63287;BME280;49410;55.708;37.522;2022-08-19T03:54:56;100090.75;;;21.09;nan
63287;BME280;49410;55.708;37.522;2022-08-19T03:57:22;100097.72;;;21.19;nan
63287;BME280;49410;55.708;37.522;2022-08-19T03:59:48;100086.19;;;21.15;nan
63287;BME280;49410;55.708;37.522;2022-08-19T04:02:13;100099.72;;;21.30;nan
63287;BME280;49410;55.708;37.522;2022-08-19T04:04:41;100100.31;;;21.32;nan
63287;BME280;49410;55.708;37.522;2022-08-19T04:07:09;100085.97;;;21.35;nan
63287;BME280;49410;55.708;37.522;2022-08-19T04:09:35;100100.88;;;21.41;nan
63287;BME280;49410;55.708;37.522;2022-08-19T04:12:02;100105.03;;;21.50;nan
63287;BME280;49410;55.708;37.522;2022-08-19T04:14:31;100116.34;;;21.55;nan
63287;BME280;49410;55.708;37.522;2022-08-19T04:16:59;100107.75;;;21.38;nan
63287;BME280;49410;55.708;37.522;2022-08-19T04:19:25;100114.09;;;21.46;nan
63287;BME280;49410;55.708;37.522;2022-08-19T04:21:53;100105.03;;;21.50;nan
63287;BME280;49410;55.708;37.522;2022-08-19T04:24:20;100118.25;;;21.55;nan
63287;BME280;49410;55.708;37.522;2022-08-19T04:26:46;100113.63;;;21.49;nan
63287;BME280;49410;55.708;37.522;2022-08-19T04:29:19;100116.75;;;21.59;nan
63287;BME280;49410;55.708;37.522;2022-08-19T04:31:48;100117.75;;;21.65;nan
63287;BME280;49410;55.708;37.522;2022-08-19T04:34:15;100108.41;;;21.59;nan
63287;BME280;49410;55.708;37.522;2022-08-19T04:36:43;100125.91;;;21.78;nan
63287;BME280;49410;55.708;37.522;2022-08-19T04:39:17;100129.63;;;21.72;nan
63287;BME280;49410;55.708;37.522;2022-08-19T04:41:44;100123.38;;;21.77;nan
63287;BME280;49410;55.708;37.522;2022-08-19T04:44:32;100112.53;;;21.87;nan
63287;BME280;49410;55.708;37.522;2022-08-19T04:46:59;100122.72;;;21.93;nan
63287;BME280;49410;55.708;37.522;2022-08-19T04:49:25;100112.97;;;22.02;nan
63287;BME280;49410;55.708;37.522;2022-08-19T04:51:53;100131.47;;;22.27;nan
63287;BME280;49410;55.708;37.522;2022-08-19T04:54:21;100124.44;;;22.25;nan
63287;BME280;49410;55.708;37.522;2022-08-19T04:56:52;100124.03;;;22.52;nan
63287;BME280;49410;55.708;37.522;2022-08-19T04:59:19;100116.56;;;22.76;nan
63287;BME280;49410;55.708;37.522;2022-08-19T05:01:45;100229.22;;;23.10;nan
63287;BME280;49410;55.708;37.522;2022-08-19T05:04:14;100231.59;;;23.49;nan
63287;BME280;49410;55.708;37.522;2022-08-19T05:11:34;100228.09;;;24.18;nan
63287;BME280;49410;55.708;37.522;2022-08-19T05:16:30;100215.59;;;24.21;nan
63287;BME280;49410;55.708;37.522;2022-08-19T05:18:55;100228.97;;;24.07;nan
63287;BME280;49410;55.708;37.522;2022-08-19T05:21:41;100218.94;;;24.06;nan
63287;BME280;49410;55.708;37.522;2022-08-19T05:24:26;100230.28;;;24.16;nan
63287;BME280;49410;55.708;37.522;2022-08-19T05:26:52;100226.63;;;24.28;nan
63287;BME280;49410;55.708;37.522;2022-08-19T05:31:47;100229.38;;;24.40;nan
63287;BME280;49410;55.708;37.522;2022-08-19T05:34:16;100231.72;;;24.31;nan
63287;BME280;49410;55.708;37.522;2022-08-19T05:39:14;100224.56;;;24.23;nan
63287;BME280;49410;55.708;37.522;2022-08-19T05:44:09;100233.09;;;24.16;nan
63287;BME280;49410;55.708;37.522;2022-08-19T05:46:38;100218.19;;;23.99;nan
63287;BME280;49410;55.708;37.522;2022-08-19T05:49:05;100149.75;;;23.84;nan
63287;BME280;49410;55.708;37.522;2022-08-19T05:51:33;100123.19;;;23.70;nan
63287;BME280;49410;55.708;37.522;2022-08-19T05:54:00;100114.09;;;23.75;nan
63287;BME280;49410;55.708;37.522;2022-08-19T05:56:25;100127.31;;;23.79;nan
63287;BME280;49410;55.708;37.522;2022-08-19T05:58:52;100125.38;;;23.80;nan
63287;BME280;49410;55.708;37.522;2022-08-19T06:01:19;100121.63;;;23.74;nan
63287;BME280;49410;55.708;37.522;2022-08-19T06:03:45;100125.81;;;23.88;nan
63287;BME280;49410;55.708;37.522;2022-08-19T06:06:13;100116.25;;;23.84;nan
63287;BME280;49410;55.708;37.522;2022-08-19T06:08:39;100114.16;;;23.92;nan
63287;BME280;49410;55.708;37.522;2022-08-19T06:14:00;100128.22;;;24.09;nan
63287;BME280;49410;55.708;37.522;2022-08-19T06:16:26;100120.03;;;24.19;nan
63287;BME280;49410;55.708;37.522;2022-08-19T06:18:54;100139.47;;;24.14;nan
63287;BME280;49410;55.708;37.522;2022-08-19T06:21:21;100135.31;;;24.16;nan
63287;BME280;49410;55.708;37.522;2022-08-19T06:23:48;100150.16;;;24.17;nan
63287;BME280;49410;55.708;37.522;2022-08-19T06:26:15;100132.38;;;24.23;nan
63287;BME280;49410;55.708;37.522;2022-08-19T06:28:41;100142.47;;;24.24;nan
63287;BME280;49410;55.708;37.522;2022-08-19T06:31:08;100133.31;;;24.29;nan
63287;BME280;49410;55.708;37.522;2022-08-19T06:33:35;100131.25;;;24.36;nan
63287;BME280;49410;55.708;37.522;2022-08-19T06:36:01;100139.38;;;24.38;nan
63287;BME280;49410;55.708;37.522;2022-08-19T06:38:26;100130.91;;;24.49;nan
63287;BME280;49410;55.708;37.522;2022-08-19T06:41:00;100136.84;;;24.36;nan
63287;BME280;49410;55.708;37.522;2022-08-19T06:43:26;100129.47;;;24.47;nan
63287;BME280;49410;55.708;37.522;2022-08-19T06:45:51;100236.41;;;24.42;nan
63287;BME280;49410;55.708;37.522;2022-08-19T06:48:17;100240.41;;;24.46;nan
63287;BME280;49410;55.708;37.522;2022-08-19T06:50:43;100126.22;;;24.38;nan
63287;BME280;49410;55.708;37.522;2022-08-19T06:53:09;100137.16;;;24.40;nan
63287;BME280;49410;55.708;37.522;2022-08-19T06:55:34;100114.78;;;24.23;nan
63287;BME280;49410;55.708;37.522;2022-08-19T06:58:03;100130.94;;;24.21;nan
63287;BME280;49410;55.708;37.522;2022-08-19T07:00:29;100120.44;;;24.28;nan
63287;BME280;49410;55.708;37.522;2022-08-19T07:02:55;100141.03;;;24.22;nan
63287;BME280;49410;55.708;37.522;2022-08-19T07:05:20;100141.97;;;24.27;nan
63287;BME280;49410;55.708;37.522;2022-08-19T07:07:46;100129.00;;;24.21;nan
63287;BME280;49410;55.708;37.522;2022-08-19T07:10:12;100120.09;;;24.24;nan
63287;BME280;49410;55.708;37.522;2022-08-19T07:12:37;100132.16;;;24.25;nan
63287;BME280;49410;55.708;37.522;2022-08-19T07:15:05;100136.13;;;24.29;nan
63287;BME280;49410;55.708;37.522;2022-08-19T07:17:31;100132.69;;;24.39;nan
63287;BME280;49410;55.708;37.522;2022-08-19T07:19:58;100117.44;;;24.29;nan
63287;BME280;49410;55.708;37.522;2022-08-19T07:22:23;100138.59;;;24.42;nan
63287;BME280;49410;55.708;37.522;2022-08-19T07:24:50;100122.78;;;24.48;nan
63287;BME280;49410;55.708;37.522;2022-08-19T07:27:15;100130.19;;;24.71;nan
63287;BME280;49410;55.708;37.522;2022-08-19T07:29:42;100126.03;;;25.08;nan
63287;BME280;49410;55.708;37.522;2022-08-19T07:32:07;100230.63;;;25.24;nan
63287;BME280;49410;55.708;37.522;2022-08-19T07:34:34;100226.63;;;25.71;nan
63287;BME280;49410;55.708;37.522;2022-08-19T07:37:05;100230.34;;;26.16;nan
63287;BME280;49410;55.708;37.522;2022-08-19T07:41:59;100230.31;;;26.38;nan
63287;BME280;49410;55.708;37.522;2022-08-19T07:44:26;100226.72;;;26.43;nan
63287;BME280;49410;55.708;37.522;2022-08-19T07:46:55;100232.97;;;26.50;nan
63287;BME280;49410;55.708;37.522;2022-08-19T07:49:22;100223.88;;;26.38;nan
63287;BME280;49410;55.708;37.522;2022-08-19T07:52:00;100243.88;;;26.24;nan
63287;BME280;49410;55.708;37.522;2022-08-19T07:54:28;100230.19;;;26.28;nan
63287;BME280;49410;55.708;37.522;2022-08-19T07:56:54;100242.91;;;26.13;nan
63287;BME280;49410;55.708;37.522;2022-08-19T07:59:21;100245.88;;;26.07;nan
63287;BME280;49410;55.708;37.522;2022-08-19T08:01:47;100244.66;;;26.19;nan
63287;BME280;49410;55.708;37.522;2022-08-19T08:04:14;100240.13;;;26.41;nan
63287;BME280;49410;55.708;37.522;2022-08-19T08:09:56;100245.31;;;26.49;nan
63287;BME280;49410;55.708;37.522;2022-08-19T08:12:25;100246.94;;;26.23;nan
63287;BME280;49410;55.708;37.522;2022-08-19T08:17:23;100243.34;;;26.49;nan
63287;BME280;49410;55.708;37.522;2022-08-19T08:19:49;100261.34;;;26.54;nan
63287;BME280;49410;55.708;37.522;2022-08-19T08:22:18;100258.78;;;26.52;nan
63287;BME280;49410;55.708;37.522;2022-08-19T08:25:22;100261.16;;;26.16;nan
63287;BME280;49410;55.708;37.522;2022-08-19T08:27:49;100263.88;;;26.11;nan
63287;BME280;49410;55.708;37.522;2022-08-19T08:30:24;100271.44;;;26.32;nan
63287;BME280;49410;55.708;37.522;2022-08-19T08:32:51;100255.22;;;26.34;nan
63287;BME280;49410;55.708;37.522;2022-08-19T08:42:51;100260.41;;;26.26;nan
63287;BME280;49410;55.708;37.522;2022-08-19T08:45:20;100255.28;;;26.40;nan
63287;BME280;49410;55.708;37.522;2022-08-19T08:50:33;100249.94;;;26.16;nan
63287;BME280;49410;55.708;37.522;2022-08-19T08:53:03;100256.81;;;26.08;nan
63287;BME280;49410;55.708;37.522;2022-08-19T08:55:31;100253.81;;;26.10;nan
63287;BME280;49410;55.708;37.522;2022-08-19T08:58:01;100261.16;;;26.16;nan
63287;BME280;49410;55.708;37.522;2022-08-19T09:00:29;100249.28;;;26.09;nan
63287;BME280;49410;55.708;37.522;2022-08-19T09:02:57;100255.75;;;26.09;nan
63287;BME280;49410;55.708;37.522;2022-08-19T09:08:07;100246.28;;;25.76;nan
63287;BME280;49410;55.708;37.522;2022-08-19T09:15:47;100261.59;;;26.30;nan
63287;BME280;49410;55.708;37.522;2022-08-19T09:18:15;100255.34;;;26.45;nan
63287;BME280;49410;55.708;37.522;2022-08-19T09:25:33;100248.84;;;26.66;nan
63287;BME280;49410;55.708;37.522;2022-08-19T09:28:00;100276.69;;;26.73;nan
63287;BME280;49410;55.708;37.522;2022-08-19T09:30:32;100283.69;;;26.71;nan
63287;BME280;49410;55.708;37.522;2022-08-19T09:32:58;100271.75;;;26.58;nan
63287;BME280;49410;55.708;37.522;2022-08-19T09:37:52;100256.94;;;26.63;nan
63287;BME280;49410;55.708;37.522;2022-08-19T09:40:18;100278.59;;;26.67;nan
63287;BME280;49410;55.708;37.522;2022-08-19T09:42:44;100269.38;;;26.72;nan
63287;BME280;49410;55.708;37.522;2022-08-19T09:45:12;100267.97;;;26.70;nan
63287;BME280;49410;55.708;37.522;2022-08-19T09:47:38;100274.06;;;26.89;nan
63287;BME280;49410;55.708;37.522;2022-08-19T09:50:05;100279.63;;;27.11;nan
63287;BME280;49410;55.708;37.522;2022-08-19T09:52:32;100266.03;;;26.97;nan
63287;BME280;49410;55.708;37.522;2022-08-19T09:54:58;100263.81;;;27.00;nan
63287;BME280;49410;55.708;37.522;2022-08-19T09:57:24;100275.69;;;27.12;nan
63287;BME280;49410;55.708;37.522;2022-08-19T10:02:15;100272.56;;;26.81;nan
63287;BME280;49410;55.708;37.522;2022-08-19T10:04:40;100281.97;;;26.70;nan
63287;BME280;49410;55.708;37.522;2022-08-19T10:09:50;100289.63;;;26.52;nan
63287;BME280;49410;55.708;37.522;2022-08-19T10:12:15;100282.81;;;26.70;nan
63287;BME280;49410;55.708;37.522;2022-08-19T10:14:41;100270.03;;;26.79;nan
63287;BME280;49410;55.708;37.522;2022-08-19T10:17:07;100286.72;;;26.91;nan
63287;BME280;49410;55.708;37.522;2022-08-19T10:22:06;100279.03;;;27.09;nan
63287;BME280;49410;55.708;37.522;2022-08-19T10:24:33;100284.34;;;27.05;nan
63287;BME280;49410;55.708;37.522;2022-08-19T10:27:00;100281.28;;;27.12;nan
63287;BME280;49410;55.708;37.522;2022-08-19T10:29:29;100294.28;;;27.18;nan
63287;BME280;49410;55.708;37.522;2022-08-19T10:31:54;100284.97;;;27.12;nan
63287;BME280;49410;55.708;37.522;2022-08-19T10:34:21;100294.00;;;26.92;nan
63287;BME280;49410;55.708;37.522;2022-08-19T10:36:46;100281.66;;;26.88;nan
63287;BME280;49410;55.708;37.522;2022-08-19T10:39:12;100288.09;;;26.89;nan
63287;BME280;49410;55.708;37.522;2022-08-19T10:44:08;100284.13;;;26.85;nan
63287;BME280;49410;55.708;37.522;2022-08-19T10:46:38;100276.97;;;26.99;nan
63287;BME280;49410;55.708;37.522;2022-08-19T10:49:07;100285.38;;;26.99;nan
63287;BME280;49410;55.708;37.522;2022-08-19T10:51:33;100293.09;;;27.14;nan
63287;BME280;49410;55.708;37.522;2022-08-19T10:54:18;100288.88;;;27.11;nan
63287;BME280;49410;55.708;37.522;2022-08-19T10:59:23;100288.25;;;27.04;nan
63287;BME280;49410;55.708;37.522;2022-08-19T11:04:15;100304.13;;;26.93;nan
63287;BME280;49410;55.708;37.522;2022-08-19T11:09:09;100295.00;;;26.81;nan
63287;BME280;49410;55.708;37.522;2022-08-19T11:11:35;100287.34;;;26.76;nan
63287;BME280;49410;55.708;37.522;2022-08-19T11:14:07;100292.03;;;26.65;nan
63287;BME280;49410;55.708;37.522;2022-08-19T11:18:59;100284.25;;;26.73;nan
63287;BME280;49410;55.708;37.522;2022-08-19T11:23:59;100279.97;;;26.65;nan
63287;BME280;49410;55.708;37.522;2022-08-19T11:26:25;100276.38;;;26.70;nan
63287;BME280;49410;55.708;37.522;2022-08-19T11:31:22;100286.03;;;26.79;nan
63287;BME280;49410;55.708;37.522;2022-08-19T11:38:44;100265.56;;;26.56;nan
63287;BME280;49410;55.708;37.522;2022-08-19T11:41:10;100274.88;;;26.62;nan
63287;BME280;49410;55.708;37.522;2022-08-19T11:43:37;100279.06;;;26.59;nan
63287;BME280;49410;55.708;37.522;2022-08-19T11:46:07;100285.47;;;26.55;nan
63287;BME280;49410;55.708;37.522;2022-08-19T11:51:04;100187.44;;;26.65;nan
63287;BME280;49410;55.708;37.522;2022-08-19T11:53:31;100286.41;;;26.65;nan
63287;BME280;49410;55.708;37.522;2022-08-19T11:55:57;100280.91;;;26.76;nan
63287;BME280;49410;55.708;37.522;2022-08-19T11:58:23;100291.44;;;26.86;nan
63287;BME280;49410;55.708;37.522;2022-08-19T12:03:15;100296.16;;;26.80;nan
63287;BME280;49410;55.708;37.522;2022-08-19T12:05:41;100259.44;;;26.59;nan
63287;BME280;49410;55.708;37.522;2022-08-19T12:08:07;100273.19;;;26.61;nan
63287;BME280;49410;55.708;37.522;2022-08-19T12:10:34;100239.47;;;26.56;nan
63287;BME280;49410;55.708;37.522;2022-08-19T12:15:27;100281.63;;;26.66;nan
63287;BME280;49410;55.708;37.522;2022-08-19T12:20:23;100262.59;;;26.68;nan
63287;BME280;49410;55.708;37.522;2022-08-19T12:25:14;100276.97;;;26.49;nan
63287;BME280;49410;55.708;37.522;2022-08-19T12:27:40;100184.78;;;26.53;nan
63287;BME280;49410;55.708;37.522;2022-08-19T12:30:09;100273.97;;;26.56;nan
63287;BME280;49410;55.708;37.522;2022-08-19T12:32:35;100263.66;;;26.62;nan
63287;BME280;49410;55.708;37.522;2022-08-19T12:39:51;100265.84;;;26.55;nan
63287;BME280;49410;55.708;37.522;2022-08-19T12:42:17;100170.50;;;26.55;nan
63287;BME280;49410;55.708;37.522;2022-08-19T12:44:43;100155.31;;;26.50;nan
63287;BME280;49410;55.708;37.522;2022-08-19T12:47:12;100254.66;;;26.60;nan
63287;BME280;49410;55.708;37.522;2022-08-19T12:49:39;100250.63;;;26.50;nan
63287;BME280;49410;55.708;37.522;2022-08-19T12:52:07;100256.53;;;26.49;nan
63287;BME280;49410;55.708;37.522;2022-08-19T12:54:33;100258.47;;;26.48;nan
63287;BME280;49410;55.708;37.522;2022-08-19T12:56:59;100159.41;;;26.38;nan
63287;BME280;49410;55.708;37.522;2022-08-19T12:59:26;100256.06;;;26.35;nan
63287;BME280;49410;55.708;37.522;2022-08-19T13:01:52;100160.00;;;26.40;nan
63287;BME280;49410;55.708;37.522;2022-08-19T13:04:18;100154.16;;;26.19;nan
63287;BME280;49410;55.708;37.522;2022-08-19T13:06:44;100172.00;;;26.35;nan
63287;BME280;49410;55.708;37.522;2022-08-19T13:09:09;100175.44;;;26.42;nan
63287;BME280;49410;55.708;37.522;2022-08-19T13:11:36;100276.25;;;26.37;nan
63287;BME280;49410;55.708;37.522;2022-08-19T13:14:02;100263.44;;;26.41;nan
63287;BME280;49410;55.708;37.522;2022-08-19T13:18:55;100260.53;;;26.36;nan
63287;BME280;49410;55.708;37.522;2022-08-19T13:21:24;100146.38;;;26.26;nan
63287;BME280;49410;55.708;37.522;2022-08-19T13:23:51;100174.41;;;26.26;nan
63287;BME280;49410;55.708;37.522;2022-08-19T13:26:17;100163.47;;;26.25;nan
63287;BME280;49410;55.708;37.522;2022-08-19T13:28:44;100174.00;;;26.40;nan
63287;BME280;49410;55.708;37.522;2022-08-19T13:31:31;100168.72;;;26.21;nan
63287;BME280;49410;55.708;37.522;2022-08-19T13:34:16;100163.72;;;26.23;nan
63287;BME280;49410;55.708;37.522;2022-08-19T13:36:42;100182.69;;;26.16;nan
63287;BME280;49410;55.708;37.522;2022-08-19T13:39:09;100169.78;;;26.15;nan
63287;BME280;49410;55.708;37.522;2022-08-19T13:41:36;100175.56;;;26.08;nan
63287;BME280;49410;55.708;37.522;2022-08-19T13:44:03;100169.66;;;26.04;nan
63287;BME280;49410;55.708;37.522;2022-08-19T13:46:29;100163.75;;;26.06;nan
63287;BME280;49410;55.708;37.522;2022-08-19T13:48:56;100144.91;;;25.96;nan
63287;BME280;49410;55.708;37.522;2022-08-19T13:51:22;100172.31;;;26.16;nan
63287;BME280;49410;55.708;37.522;2022-08-19T13:53:48;100177.59;;;26.13;nan
63287;BME280;49410;55.708;37.522;2022-08-19T13:56:16;100174.97;;;26.06;nan
63287;BME280;49410;55.708;37.522;2022-08-19T13:58:43;100177.28;;;26.09;nan
63287;BME280;49410;55.708;37.522;2022-08-19T14:01:09;100170.63;;;25.93;nan
63287;BME280;49410;55.708;37.522;2022-08-19T14:03:35;100190.31;;;25.98;nan
63287;BME280;49410;55.708;37.522;2022-08-19T14:06:01;100172.59;;;25.93;nan
63287;BME280;49410;55.708;37.522;2022-08-19T14:08:27;100192.25;;;25.98;nan
63287;BME280;49410;55.708;37.522;2022-08-19T14:10:56;100189.53;;;26.03;nan
63287;BME280;49410;55.708;37.522;2022-08-19T14:13:23;100176.19;;;25.88;nan
63287;BME280;49410;55.708;37.522;2022-08-19T14:15:49;100190.50;;;25.92;nan
63287;BME280;49410;55.708;37.522;2022-08-19T14:18:17;100192.91;;;25.83;nan
63287;BME280;49410;55.708;37.522;2022-08-19T14:20:44;100195.97;;;25.81;nan
63287;BME280;49410;55.708;37.522;2022-08-19T14:23:10;100205.59;;;25.91;nan
63287;BME280;49410;55.708;37.522;2022-08-19T14:25:37;100195.56;;;25.95;nan
63287;BME280;49410;55.708;37.522;2022-08-19T14:28:03;100209.09;;;25.81;nan
63287;BME280;49410;55.708;37.522;2022-08-19T14:30:36;100183.56;;;25.77;nan
63287;BME280;49410;55.708;37.522;2022-08-19T14:33:03;100205.00;;;25.66;nan
63287;BME280;49410;55.708;37.522;2022-08-19T14:35:31;100193.22;;;25.64;nan
63287;BME280;49410;55.708;37.522;2022-08-19T14:38:00;100199.88;;;25.80;nan
63287;BME280;49410;55.708;37.522;2022-08-19T14:40:27;100201.66;;;25.69;nan
63287;BME280;49410;55.708;37.522;2022-08-19T14:42:56;100195.97;;;25.81;nan